Time;durP1;ratioP1;P1;durP2;ratioP2;P2;SDS_P1;SDS_P2;PMS_P1;PMS_P2;Temp;Humidity;BMP_temperature;BMP_pressure;BME280_temperature;BME280_humidity;BME280_pressure;Samples;Min_cycle;Max_cycle;Signal;HPM_P1;HPM_P2
2022/06/29 00:02:12;;;;;;;4.27;4.07;;;17.30;99.90;;;;;;5014894;28;20461;-69
2022/06/29 00:05:02;;;;;;;4.80;4.50;;;17.30;99.90;;;;;;5018728;28;20565;-69
2022/06/29 00:08:00;;;;;;;5.07;4.67;;;17.20;99.90;;;;;;5019060;28;20468;-70
2022/06/29 00:10:54;;;;;;;4.67;4.37;;;17.20;99.90;;;;;;5020448;28;20522;-69
2022/06/29 00:13:51;;;;;;;4.87;4.57;;;17.20;99.90;;;;;;5023890;28;20464;-69
2022/06/29 00:16:42;;;;;;;5.07;4.67;;;17.30;99.90;;;;;;5022929;28;20506;-69
2022/06/29 00:19:37;;;;;;;4.43;4.03;;;17.10;99.90;;;;;;5013241;28;20570;-69
2022/06/29 00:22:35;;;;;;;4.97;4.57;;;17.10;99.90;;;;;;5012947;28;20586;-69
2022/06/29 00:25:31;;;;;;;4.67;4.37;;;17.10;99.90;;;;;;5010127;28;20629;-69
2022/06/29 00:28:23;;;;;;;5.13;4.73;;;17.00;99.90;;;;;;5014839;28;20476;-69
2022/06/29 00:31:17;;;;;;;4.57;4.30;;;17.00;99.90;;;;;;5012985;28;21029;-69
2022/06/29 00:34:12;;;;;;;4.33;4.03;;;17.00;99.90;;;;;;5016640;28;20476;-69
2022/06/29 00:37:07;;;;;;;4.90;4.60;;;17.00;99.90;;;;;;5018253;28;20467;-69
2022/06/29 00:40:02;;;;;;;4.30;4.00;;;16.90;99.90;;;;;;5017866;28;20620;-69
2022/06/29 00:42:55;;;;;;;4.87;4.47;;;16.90;99.90;;;;;;5017311;28;20776;-69
2022/06/29 00:45:51;;;;;;;4.53;4.23;;;16.90;99.90;;;;;;5010499;28;20542;-69
2022/06/29 00:48:41;;;;;;;4.77;4.37;;;16.90;99.90;;;;;;5020600;28;20463;-69
2022/06/29 00:51:43;;;;;;;5.50;5.10;;;16.90;99.90;;;;;;5017813;28;20475;-69
2022/06/29 00:54:43;;;;;;;4.23;3.93;;;16.90;99.90;;;;;;5017098;28;20563;-69
2022/06/29 00:57:38;;;;;;;4.40;4.00;;;16.80;99.90;;;;;;5017974;28;20988;-70
2022/06/29 01:00:46;;;;;;;4.83;4.53;;;16.70;99.90;;;;;;5020488;28;20451;-69
2022/06/29 01:03:42;;;;;;;4.73;4.43;;;16.80;99.90;;;;;;5019152;28;20451;-69
2022/06/29 01:06:32;;;;;;;4.70;4.40;;;16.70;99.90;;;;;;5018131;28;20455;-69
2022/06/29 01:09:26;;;;;;;4.83;4.50;;;16.70;99.90;;;;;;5018842;28;20582;-69
2022/06/29 01:12:16;;;;;;;4.80;4.50;;;16.50;99.90;;;;;;5017137;28;21043;-69
2022/06/29 01:15:11;;;;;;;4.70;4.40;;;16.60;99.90;;;;;;5015196;28;20487;-70
2022/06/29 01:18:12;;;;;;;4.07;3.80;;;16.60;99.90;;;;;;5016866;28;20794;-69
2022/06/29 01:21:05;;;;;;;4.97;4.47;;;16.50;99.90;;;;;;5018252;28;20621;-69
2022/06/29 01:23:59;;;;;;;4.27;3.97;;;16.50;99.90;;;;;;5016738;28;20792;-69
2022/06/29 01:26:49;;;;;;;5.00;4.70;;;16.40;99.90;;;;;;5016580;28;20487;-69
2022/06/29 01:29:39;;;;;;;4.90;4.50;;;16.40;99.90;;;;;;5018629;28;20500;-69
2022/06/29 01:32:28;;;;;;;4.60;4.30;;;16.30;99.90;;;;;;5018857;28;20495;-69
2022/06/29 01:35:23;;;;;;;4.87;4.47;;;16.30;99.90;;;;;;5014158;28;20486;-69
2022/06/29 01:38:13;;;;;;;5.00;4.70;;;16.30;99.90;;;;;;5018770;28;20567;-69
2022/06/29 01:41:03;;;;;;;4.73;4.37;;;16.30;99.90;;;;;;5017063;28;20470;-69
2022/06/29 01:43:53;;;;;;;5.20;4.70;;;16.20;99.90;;;;;;5016597;28;20554;-69
2022/06/29 01:46:41;;;;;;;4.40;4.10;;;16.20;99.90;;;;;;5020220;28;20494;-69
2022/06/29 01:49:36;;;;;;;4.87;4.57;;;16.20;99.90;;;;;;5018732;28;20475;-69
2022/06/29 01:52:53;;;;;;;4.80;4.50;;;16.20;99.90;;;;;;5018703;28;20562;-69
2022/06/29 01:55:53;;;;;;;4.90;4.50;;;16.10;99.90;;;;;;5015554;28;20472;-69
2022/06/29 02:02:25;;;;;;;5.00;4.60;;;16.10;99.90;;;;;;5021001;28;20459;-69
2022/06/29 02:05:32;;;;;;;4.83;4.50;;;16.00;99.90;;;;;;5018031;28;20572;-69
2022/06/29 02:08:20;;;;;;;5.47;4.17;;;16.00;99.90;;;;;;5018804;28;20450;-70
2022/06/29 02:11:09;;;;;;;5.00;4.70;;;16.00;99.90;;;;;;5019599;28;20646;-69
2022/06/29 02:15:05;;;;;;;5.00;4.67;;;16.00;99.90;;;;;;5018747;28;20472;-70
2022/06/29 02:18:04;;;;;;;5.40;5.00;;;15.90;99.90;;;;;;5018613;28;20460;-70
2022/06/29 02:20:53;;;;;;;4.83;4.53;;;15.90;99.90;;;;;;5023918;28;20516;-69
2022/06/29 02:23:41;;;;;;;4.90;4.60;;;15.90;99.90;;;;;;5032461;28;20480;-71
2022/06/29 02:26:29;;;;;;;4.60;4.30;;;15.80;99.90;;;;;;5028770;28;20516;-70
2022/06/29 02:29:27;;;;;;;4.73;4.43;;;15.80;99.90;;;;;;5028405;28;20511;-69
2022/06/29 02:36:16;;;;;;;5.50;5.10;;;15.70;99.90;;;;;;5013634;28;20472;-70
2022/06/29 02:39:10;;;;;;;4.40;4.10;;;15.70;99.90;;;;;;5036229;28;20448;-69
2022/06/29 02:41:59;;;;;;;4.30;4.10;;;15.60;99.90;;;;;;5037871;28;20448;-70
2022/06/29 02:45:05;;;;;;;4.80;4.40;;;15.60;99.90;;;;;;5020202;28;20853;-69
2022/06/29 02:48:21;;;;;;;4.33;4.03;;;15.60;99.90;;;;;;5020547;28;20509;-69
2022/06/29 02:51:31;;;;;;;4.80;4.40;;;15.60;99.90;;;;;;5020598;28;20913;-70
2022/06/29 02:54:22;;;;;;;4.63;4.23;;;15.60;99.90;;;;;;5026962;28;20487;-70
2022/06/29 02:57:34;;;;;;;4.47;4.17;;;15.70;99.90;;;;;;5023799;28;20514;-69
2022/06/29 03:03:59;;;;;;;3.80;3.60;;;15.60;99.90;;;;;;5017532;28;20461;-69
2022/06/29 03:10:35;;;;;;;4.10;3.87;;;15.60;99.90;;;;;;5017752;28;20595;-69
2022/06/29 03:13:31;;;;;;;4.13;3.83;;;15.60;99.90;;;;;;5018196;28;20464;-69
2022/06/29 03:16:31;;;;;;;3.63;3.33;;;15.60;99.90;;;;;;5019481;28;20451;-69
2022/06/29 03:19:39;;;;;;;4.83;4.43;;;15.60;99.90;;;;;;5018963;28;20506;-69
2022/06/29 03:22:35;;;;;;;4.47;4.17;;;15.60;99.90;;;;;;5019468;28;20612;-69
2022/06/29 03:25:34;;;;;;;4.40;4.00;;;15.50;99.90;;;;;;5009673;28;20499;-69
2022/06/29 03:28:59;;;;;;;3.80;3.60;;;15.60;99.90;;;;;;5017857;28;20455;-69
2022/06/29 03:31:54;;;;;;;3.50;3.30;;;15.60;99.90;;;;;;5017832;28;20470;-69
2022/06/29 03:34:52;;;;;;;3.93;3.63;;;15.60;99.90;;;;;;5014812;28;20559;-69
2022/06/29 03:37:54;;;;;;;3.67;3.37;;;15.70;99.90;;;;;;5019014;28;20950;-69
2022/06/29 03:41:18;;;;;;;3.83;3.50;;;15.70;99.90;;;;;;5018653;28;20479;-69
2022/06/29 03:44:21;;;;;;;3.37;3.13;;;15.80;99.90;;;;;;5013934;28;20623;-69
2022/06/29 03:47:22;;;;;;;3.53;3.30;;;15.80;99.90;;;;;;5015492;28;20618;-70
2022/06/29 03:50:16;;;;;;;3.37;3.17;;;15.80;99.90;;;;;;5015390;28;20570;-69
2022/06/29 03:53:11;;;;;;;3.30;3.00;;;15.90;99.90;;;;;;5016987;28;21007;-69
2022/06/29 03:56:09;;;;;;;3.40;3.20;;;15.90;99.90;;;;;;5016680;28;20649;-70
2022/06/29 03:59:00;;;;;;;4.20;3.83;;;15.90;99.90;;;;;;5018187;28;20491;-69
2022/06/29 04:01:55;;;;;;;3.40;3.20;;;15.90;99.90;;;;;;5014782;28;20599;-70
2022/06/29 04:04:55;;;;;;;3.47;3.27;;;15.90;99.90;;;;;;5015792;28;20533;-69
2022/06/29 04:07:45;;;;;;;3.00;2.80;;;16.00;99.90;;;;;;5013493;28;20467;-70
2022/06/29 04:10:42;;;;;;;3.20;2.90;;;16.00;99.90;;;;;;5013097;28;20483;-69
2022/06/29 04:13:46;;;;;;;3.20;2.90;;;16.10;99.90;;;;;;5011771;28;20473;-70
2022/06/29 04:17:02;;;;;;;3.73;3.47;;;16.10;99.90;;;;;;5013058;28;20489;-69
2022/06/29 04:19:57;;;;;;;4.40;3.03;;;16.20;99.90;;;;;;5014431;28;20673;-69
2022/06/29 04:22:49;;;;;;;3.40;3.10;;;16.20;99.90;;;;;;5017418;28;20526;-69
2022/06/29 04:25:49;;;;;;;3.37;3.17;;;16.30;99.90;;;;;;5016725;28;20487;-69
2022/06/29 04:29:00;;;;;;;3.20;3.00;;;16.30;99.90;;;;;;5013845;28;20463;-69
2022/06/29 04:31:50;;;;;;;2.90;2.70;;;16.30;99.90;;;;;;5019908;28;20481;-69
2022/06/29 04:34:44;;;;;;;3.23;2.93;;;16.40;99.90;;;;;;5015005;28;20552;-69
2022/06/29 04:37:43;;;;;;;3.50;3.03;;;16.40;99.90;;;;;;5017676;28;20448;-69
2022/06/29 04:40:44;;;;;;;3.40;2.60;;;16.50;99.90;;;;;;5008719;28;20552;-70
2022/06/29 04:43:58;;;;;;;;;;;;;;;;;;;;;
2022/06/29 04:46:58;;;;;;;3.40;3.10;;;16.50;99.90;;;;;;5011433;28;20610;-69
2022/06/29 04:50:11;;;;;;;2.57;2.47;;;16.60;99.90;;;;;;5011429;28;20479;-69
2022/06/29 04:53:12;;;;;;;2.60;2.40;;;16.70;99.90;;;;;;5012507;28;21232;-69
2022/06/29 04:59:43;;;;;;;2.60;2.40;;;16.80;99.90;;;;;;5009555;28;20479;-70
2022/06/29 05:02:41;;;;;;;3.07;2.47;;;16.80;99.90;;;;;;5006313;28;20912;-70
2022/06/29 05:05:39;;;;;;;3.00;2.80;;;16.90;99.90;;;;;;5002713;28;21261;-70
2022/06/29 05:08:34;;;;;;;2.50;2.40;;;16.90;99.90;;;;;;5007260;28;20478;-70
2022/06/29 05:11:32;;;;;;;2.70;2.50;;;17.00;99.90;;;;;;5008874;28;20452;-70
2022/06/29 05:14:29;;;;;;;2.73;2.53;;;17.00;99.90;;;;;;5012477;28;20614;-69
2022/06/29 05:20:25;;;;;;;3.00;2.50;;;17.10;99.90;;;;;;5008625;28;20542;-70
2022/06/29 05:23:26;;;;;;;3.17;2.33;;;17.20;99.90;;;;;;5016123;28;20510;-70
2022/06/29 05:26:37;;;;;;;2.83;2.40;;;17.30;99.90;;;;;;5013430;28;20598;-70
2022/06/29 05:29:36;;;;;;;2.80;2.60;;;17.40;99.90;;;;;;4990088;28;20471;-69
2022/06/29 05:32:25;;;;;;;2.50;2.40;;;17.50;99.90;;;;;;5013530;28;20923;-70
2022/06/29 05:35:36;;;;;;;3.77;2.87;;;17.50;99.90;;;;;;5005843;28;21022;-70
2022/06/29 05:38:47;;;;;;;2.43;2.23;;;17.50;99.90;;;;;;5019343;28;20466;-70
2022/06/29 05:41:41;;;;;;;2.93;2.73;;;17.60;99.90;;;;;;5020418;28;20547;-71
2022/06/29 05:44:30;;;;;;;3.20;2.40;;;17.70;99.90;;;;;;5013260;28;20487;-70
2022/06/29 05:47:42;;;;;;;2.60;2.40;;;17.80;99.90;;;;;;5018877;28;20490;-69
2022/06/29 05:50:47;;;;;;;2.30;2.10;;;17.80;99.90;;;;;;5020456;28;20467;-69
2022/06/29 05:53:54;;;;;;;3.00;2.30;;;17.90;99.90;;;;;;5014211;28;20472;-71
2022/06/29 05:57:04;;;;;;;2.37;2.23;;;18.00;99.90;;;;;;5015114;28;20451;-69
2022/06/29 06:00:08;;;;;;;2.80;2.33;;;18.10;99.90;;;;;;5019159;28;20479;-70
2022/06/29 06:02:57;;;;;;;2.30;2.10;;;18.20;99.90;;;;;;5014526;28;20515;-70
2022/06/29 06:05:48;;;;;;;2.10;1.90;;;18.30;99.90;;;;;;5000709;28;20915;-70
2022/06/29 06:08:44;;;;;;;2.10;2.00;;;18.40;99.90;;;;;;5014538;28;20518;-70
2022/06/29 06:11:32;;;;;;;3.20;1.97;;;18.40;99.90;;;;;;5018326;28;20672;-70
2022/06/29 06:14:20;;;;;;;2.77;2.40;;;18.50;99.90;;;;;;5018452;28;20574;-70
2022/06/29 06:17:10;;;;;;;2.57;2.37;;;18.60;99.90;;;;;;5019963;28;20931;-70
2022/06/29 06:19:59;;;;;;;2.57;2.00;;;18.70;99.90;;;;;;5019365;28;20471;-69
2022/06/29 06:22:49;;;;;;;2.50;2.30;;;18.80;99.90;;;;;;5020279;28;20534;-70
2022/06/29 06:25:37;;;;;;;2.27;2.07;;;18.90;99.90;;;;;;5019801;28;20456;-69
2022/06/29 06:28:25;;;;;;;3.47;2.33;;;18.90;99.90;;;;;;5017843;28;20520;-70
2022/06/29 06:31:17;;;;;;;2.53;2.13;;;19.00;99.90;;;;;;5021765;28;20998;-70
2022/06/29 06:34:06;;;;;;;4.53;2.70;;;19.10;99.90;;;;;;5016696;28;20826;-70
2022/06/29 06:36:55;;;;;;;2.30;2.10;;;19.20;99.90;;;;;;5019331;28;20451;-69
2022/06/29 06:41:21;;;;;;;3.47;2.70;;;19.30;99.90;;;;;;5018833;28;20988;-69
2022/06/29 06:42:55;;;;;;;2.20;2.10;;;19.30;99.90;;;;;;5016938;28;20451;-70
2022/06/29 06:45:43;;;;;;;3.07;2.50;;;19.40;99.90;;;;;;5016622;28;21073;-70
2022/06/29 06:48:31;;;;;;;2.50;2.27;;;19.50;99.90;;;;;;5017704;28;20528;-70
2022/06/29 06:51:22;;;;;;;3.03;2.73;;;19.60;99.90;;;;;;5015018;28;21268;-70
2022/06/29 06:54:15;;;;;;;3.40;3.10;;;19.60;99.90;;;;;;5017591;28;21007;-70
2022/06/29 06:57:04;;;;;;;2.97;2.67;;;19.70;99.90;;;;;;5021131;28;20562;-70
2022/06/29 06:59:53;;;;;;;4.20;3.00;;;19.80;99.90;;;;;;5018065;28;20484;-70
2022/06/29 07:02:41;;;;;;;3.30;3.00;;;19.90;99.90;;;;;;5019333;28;20639;-70
2022/06/29 07:05:30;;;;;;;2.93;2.73;;;20.00;99.90;;;;;;5019509;28;20490;-70
2022/06/29 07:08:18;;;;;;;2.80;2.60;;;20.00;99.90;;;;;;5020749;28;20452;-69
2022/06/29 07:11:09;;;;;;;3.30;3.00;;;20.10;99.90;;;;;;5019564;28;20820;-70
2022/06/29 07:13:57;;;;;;;3.40;2.80;;;20.20;99.90;;;;;;5016179;28;21001;-70
2022/06/29 07:16:45;;;;;;;2.77;2.57;;;20.20;99.90;;;;;;5022649;28;20484;-71
2022/06/29 07:19:33;;;;;;;2.80;2.50;;;20.30;99.90;;;;;;5031854;28;20474;-70
2022/06/29 07:22:25;;;;;;;3.17;2.80;;;20.40;99.90;;;;;;5030047;28;20567;-70
2022/06/29 07:25:13;;;;;;;2.60;2.43;;;20.40;99.90;;;;;;5027296;28;20565;-70
2022/06/29 07:28:06;;;;;;;3.43;2.90;;;20.50;99.90;;;;;;5022250;28;20481;-70
2022/06/29 07:30:55;;;;;;;2.90;2.70;;;20.50;99.90;;;;;;5020126;28;20480;-70
2022/06/29 07:33:43;;;;;;;2.73;2.53;;;20.60;99.90;;;;;;5015948;28;20478;-70
2022/06/29 07:36:39;;;;;;;2.77;2.57;;;20.70;99.90;;;;;;5018047;28;20460;-70
2022/06/29 07:39:30;;;;;;;2.27;2.17;;;20.80;99.90;;;;;;5015376;28;20537;-70
2022/06/29 07:42:27;;;;;;;3.00;2.80;;;20.80;99.90;;;;;;5018115;28;20538;-70
2022/06/29 07:45:17;;;;;;;3.43;2.67;;;20.90;99.90;;;;;;5017207;28;20566;-70
2022/06/29 07:48:15;;;;;;;2.80;2.60;;;20.90;99.90;;;;;;5017955;28;21021;-70
2022/06/29 07:51:03;;;;;;;2.73;2.50;;;21.00;99.90;;;;;;5014733;28;20569;-70
2022/06/29 07:53:51;;;;;;;3.10;2.90;;;21.00;99.90;;;;;;5018275;28;20579;-70
2022/06/29 07:56:40;;;;;;;4.00;3.33;;;21.10;99.90;;;;;;5018297;28;20463;-70
2022/06/29 07:59:50;;;;;;;3.40;3.20;;;21.20;99.90;;;;;;5014441;28;20784;-71
2022/06/29 08:02:44;;;;;;;2.93;2.60;;;21.30;99.90;;;;;;5013456;28;20482;-70
2022/06/29 08:05:33;;;;;;;3.70;3.10;;;21.40;99.90;;;;;;5015551;28;21094;-70
2022/06/29 08:08:24;;;;;;;2.73;2.60;;;21.50;99.90;;;;;;5016098;28;20483;-71
2022/06/29 08:11:15;;;;;;;2.97;2.77;;;21.60;99.90;;;;;;5014870;28;20765;-70
2022/06/29 08:14:04;;;;;;;2.97;2.77;;;21.70;99.90;;;;;;5015363;28;20612;-70
2022/06/29 08:16:52;;;;;;;4.23;2.80;;;21.80;99.90;;;;;;5014638;28;20547;-70
2022/06/29 08:19:42;;;;;;;3.27;3.07;;;21.90;99.90;;;;;;5016109;28;20866;-70
2022/06/29 08:22:30;;;;;;;5.03;3.10;;;22.00;99.90;;;;;;5017174;28;20453;-70
2022/06/29 08:25:18;;;;;;;3.00;2.80;;;22.10;99.90;;;;;;5010887;28;20675;-70
2022/06/29 08:28:08;;;;;;;2.97;2.80;;;22.20;99.90;;;;;;5016416;28;20613;-70
2022/06/29 08:30:56;;;;;;;3.20;2.90;;;22.30;99.90;;;;;;5014878;28;20478;-70
2022/06/29 08:33:48;;;;;;;2.53;2.43;;;22.40;99.90;;;;;;5016063;28;20998;-70
2022/06/29 08:36:37;;;;;;;2.93;2.73;;;22.40;99.90;;;;;;5016403;28;21316;-70
2022/06/29 08:39:40;;;;;;;2.90;2.70;;;22.50;99.90;;;;;;5016809;28;20486;-70
2022/06/29 08:42:32;;;;;;;3.03;2.43;;;22.60;99.90;;;;;;5012936;28;20478;-70
2022/06/29 08:45:21;;;;;;;2.80;2.60;;;22.70;99.90;;;;;;5014053;28;21024;-69
2022/06/29 08:48:10;;;;;;;3.20;2.90;;;22.70;99.90;;;;;;5014780;28;20488;-70
2022/06/29 08:50:59;;;;;;;3.50;3.20;;;22.80;99.90;;;;;;5015288;28;20481;-70
2022/06/29 08:53:51;;;;;;;3.77;3.00;;;22.90;99.90;;;;;;5018534;28;20940;-70
2022/06/29 08:56:39;;;;;;;3.07;2.80;;;23.00;99.90;;;;;;5020798;28;20451;-70
2022/06/29 08:59:28;;;;;;;3.37;3.10;;;23.00;99.90;;;;;;5021151;28;20486;-70
2022/06/29 09:02:36;;;;;;;3.40;3.03;;;23.10;99.90;;;;;;5021288;28;20487;-70
2022/06/29 09:05:25;;;;;;;3.10;2.80;;;23.20;99.90;;;;;;5021998;28;20468;-70
2022/06/29 09:08:13;;;;;;;3.30;3.10;;;23.30;99.90;;;;;;5021580;28;20456;-70
2022/06/29 09:11:25;;;;;;;2.80;2.70;;;23.30;99.90;;;;;;5019886;28;20553;-70
2022/06/29 09:14:24;;;;;;;11.43;3.80;;;23.40;99.90;;;;;;5018798;28;20616;-70
2022/06/29 09:17:18;;;;;;;3.50;3.30;;;23.40;99.90;;;;;;5017705;28;20571;-70
2022/06/29 09:20:08;;;;;;;2.93;2.73;;;23.40;99.90;;;;;;5020273;28;20479;-70
2022/06/29 09:23:19;;;;;;;3.30;3.03;;;23.50;99.90;;;;;;5020248;28;20462;-70
2022/06/29 09:26:13;;;;;;;3.37;3.07;;;23.60;99.90;;;;;;5018867;28;20622;-70
2022/06/29 09:29:19;;;;;;;3.30;3.10;;;23.60;99.90;;;;;;5019826;28;20545;-70
2022/06/29 09:32:10;;;;;;;3.70;3.40;;;23.70;99.90;;;;;;5017518;28;20454;-70
2022/06/29 09:35:13;;;;;;;3.83;3.40;;;23.80;99.90;;;;;;5019718;28;20464;-70
2022/06/29 09:38:23;;;;;;;3.83;3.43;;;23.80;99.90;;;;;;5019735;28;20452;-70
2022/06/29 09:41:14;;;;;;;4.07;3.87;;;24.00;99.90;;;;;;5019688;28;20555;-70
2022/06/29 09:44:04;;;;;;;4.40;4.00;;;24.00;99.90;;;;;;5019598;28;21129;-70
2022/06/29 09:47:03;;;;;;;5.10;4.67;;;24.00;99.90;;;;;;5016024;28;20507;-69
2022/06/29 09:49:57;;;;;;;6.50;3.33;;;24.10;99.90;;;;;;5015957;28;20874;-70
2022/06/29 09:52:48;;;;;;;3.53;3.23;;;24.20;99.90;;;;;;5019571;28;20452;-70
2022/06/29 09:55:39;;;;;;;4.10;2.70;;;24.30;99.90;;;;;;5017641;28;20471;-70
2022/06/29 09:58:39;;;;;;;3.53;3.33;;;24.40;99.90;;;;;;5021048;28;20958;-70
2022/06/29 10:04:40;;;;;;;3.30;3.00;;;24.40;99.90;;;;;;5017300;28;20468;-70
2022/06/29 10:07:30;;;;;;;3.33;3.03;;;24.50;99.90;;;;;;5011336;28;20468;-70
2022/06/29 10:10:21;;;;;;;3.60;3.30;;;24.60;99.90;;;;;;5016850;28;20658;-70
2022/06/29 10:16:34;;;;;;;5.20;3.37;;;24.60;99.90;;;;;;5014808;28;20476;-69
2022/06/29 10:19:38;;;;;;;3.63;3.07;;;24.70;99.90;;;;;;5010749;28;20479;-70
2022/06/29 10:22:31;;;;;;;3.13;2.93;;;24.90;99.90;;;;;;5017729;28;20944;-70
2022/06/29 10:25:27;;;;;;;3.33;3.13;;;24.90;99.90;;;;;;5018068;28;20479;-70
2022/06/29 10:28:20;;;;;;;6.33;4.00;;;25.00;99.90;;;;;;5017850;28;20662;-70
2022/06/29 10:31:08;;;;;;;3.37;3.17;;;25.10;99.90;;;;;;5013094;28;20491;-70
2022/06/29 10:34:03;;;;;;;4.40;4.00;;;25.10;99.90;;;;;;5017434;28;20470;-70
2022/06/29 10:37:04;;;;;;;3.43;3.23;;;25.10;99.90;;;;;;5015813;28;21018;-70
2022/06/29 10:39:56;;;;;;;5.70;3.27;;;25.10;99.90;;;;;;5008191;28;20471;-70
2022/06/29 10:45:57;;;;;;;4.50;4.20;;;25.20;99.90;;;;;;5013701;28;20471;-70
2022/06/29 10:49:18;;;;;;;4.63;3.43;;;25.20;99.90;;;;;;5010596;28;20486;-69
2022/06/29 10:52:16;;;;;;;4.40;4.00;;;25.20;99.90;;;;;;5016165;28;20448;-70
2022/06/29 10:55:04;;;;;;;3.30;3.10;;;25.20;99.90;;;;;;5015067;28;20653;-70
2022/06/29 10:58:07;;;;;;;3.63;3.43;;;25.40;99.90;;;;;;5012080;28;20541;-70
2022/06/29 11:00:59;;;;;;;3.17;2.97;;;25.50;99.90;;;;;;5014827;28;20475;-70
2022/06/29 11:03:47;;;;;;;3.30;3.10;;;25.60;99.90;;;;;;5015734;28;20468;-71
2022/06/29 11:13:00;;;;;;;3.50;3.20;;;26.00;99.90;;;;;;5015001;28;20471;-70
2022/06/29 11:15:50;;;;;;;4.53;3.40;;;26.00;99.90;;;;;;5013521;28;20530;-69
2022/06/29 11:18:38;;;;;;;3.50;3.30;;;26.00;99.90;;;;;;5013620;28;20606;-70
2022/06/29 11:21:29;;;;;;;3.60;3.40;;;26.10;99.90;;;;;;5014870;28;20582;-69
2022/06/29 11:24:19;;;;;;;3.80;3.60;;;26.30;99.90;;;;;;5005204;28;20513;-70
2022/06/29 11:27:30;;;;;;;3.70;3.40;;;26.20;99.90;;;;;;5006472;28;20456;-71
2022/06/29 11:30:23;;;;;;;4.27;3.97;;;26.30;99.90;;;;;;5006537;28;21199;-71
2022/06/29 11:33:13;;;;;;;3.00;2.80;;;26.30;99.90;;;;;;5005950;28;20456;-69
2022/06/29 11:36:07;;;;;;;3.97;2.90;;;26.30;99.90;;;;;;5012131;28;20975;-70
2022/06/29 11:38:57;;;;;;;5.63;4.73;;;26.30;99.90;;;;;;5013105;28;20925;-70
2022/06/29 11:45:07;;;;;;;2.90;2.70;;;26.50;99.90;;;;;;5014385;28;20548;-71
2022/06/29 11:47:56;;;;;;;3.10;2.90;;;26.70;99.90;;;;;;5014119;28;20544;-71
2022/06/29 11:50:48;;;;;;;3.60;3.30;;;26.70;99.90;;;;;;5011671;28;20585;-72
2022/06/29 11:53:43;;;;;;;3.73;3.43;;;26.70;99.90;;;;;;5015461;28;20564;-72
2022/06/29 11:56:32;;;;;;;2.60;2.40;;;26.70;99.90;;;;;;5017425;28;20562;-72
2022/06/29 11:59:22;;;;;;;2.87;2.67;;;26.70;99.90;;;;;;5014630;28;20476;-72
2022/06/29 12:02:13;;;;;;;2.50;2.40;;;26.70;99.90;;;;;;5015279;28;20478;-72
2022/06/29 12:05:02;;;;;;;3.93;2.90;;;26.60;99.90;;;;;;5014796;28;20582;-70
2022/06/29 12:07:51;;;;;;;5.23;4.73;;;26.60;99.90;;;;;;5012876;28;20514;-71
2022/06/29 12:10:48;;;;;;;3.10;2.90;;;26.60;99.90;;;;;;5016361;28;20599;-70
2022/06/29 12:13:40;;;;;;;3.37;3.17;;;26.70;99.90;;;;;;5011822;28;20527;-70
2022/06/29 12:16:33;;;;;;;3.00;2.60;;;26.80;99.90;;;;;;5011040;28;20487;-71
2022/06/29 12:19:23;;;;;;;3.20;3.00;;;26.90;99.90;;;;;;5006745;28;22329;-72
2022/06/29 12:22:13;;;;;;;4.50;4.20;;;26.90;99.90;;;;;;5007095;28;21076;-70
2022/06/29 12:25:02;;;;;;;3.67;3.40;;;27.00;99.90;;;;;;5008164;28;20563;-70
2022/06/29 12:27:52;;;;;;;2.70;2.60;;;27.10;99.90;;;;;;5008647;28;20804;-70
2022/06/29 12:30:40;;;;;;;2.90;2.70;;;27.20;99.90;;;;;;5007485;28;21017;-70
2022/06/29 12:33:36;;;;;;;2.83;2.50;;;27.10;99.90;;;;;;5009074;28;20961;-70
2022/06/29 12:36:33;;;;;;;2.60;2.40;;;27.20;99.90;;;;;;5010062;28;20484;-69
2022/06/29 12:39:22;;;;;;;3.60;3.00;;;27.30;99.90;;;;;;5012779;28;20487;-69
2022/06/29 12:42:14;;;;;;;2.60;2.50;;;27.30;99.90;;;;;;5007661;28;21007;-69
2022/06/29 12:45:04;;;;;;;4.60;3.43;;;27.30;99.90;;;;;;5013125;28;20503;-69
2022/06/29 12:47:52;;;;;;;3.50;3.30;;;27.50;99.90;;;;;;4995585;28;20983;-69
2022/06/29 12:50:42;;;;;;;5.43;3.60;;;27.60;99.90;;;;;;5014990;28;20482;-69
2022/06/29 12:53:34;;;;;;;3.30;3.10;;;27.70;99.90;;;;;;5007627;28;20467;-69
2022/06/29 12:56:22;;;;;;;3.23;2.70;;;27.60;99.90;;;;;;5005661;28;20558;-69
2022/06/29 12:59:12;;;;;;;2.37;2.27;;;27.60;99.90;;;;;;5003983;28;20494;-69
2022/06/29 13:02:01;;;;;;;2.70;2.50;;;27.60;99.90;;;;;;5005869;28;20502;-69
2022/06/29 13:04:49;;;;;;;2.60;2.50;;;27.60;99.90;;;;;;5012008;28;20476;-68
2022/06/29 13:07:37;;;;;;;2.83;2.67;;;27.60;99.90;;;;;;5007130;28;20586;-68
2022/06/29 13:10:30;;;;;;;3.10;2.80;;;27.60;99.90;;;;;;5010867;28;20498;-68
2022/06/29 13:13:18;;;;;;;3.07;2.77;;;27.60;99.90;;;;;;5014134;28;20464;-69
2022/06/29 13:16:07;;;;;;;2.50;2.20;;;27.60;99.90;;;;;;4999777;28;21019;-66
2022/06/29 13:18:55;;;;;;;3.00;2.80;;;27.50;99.90;;;;;;5012408;28;20471;-68
2022/06/29 13:21:46;;;;;;;2.87;2.67;;;27.30;99.90;;;;;;5006072;28;20544;-68
2022/06/29 13:24:35;;;;;;;4.20;2.60;;;27.30;99.90;;;;;;5000608;28;20483;-68
2022/06/29 13:27:27;;;;;;;2.40;2.30;;;27.40;99.90;;;;;;5008510;28;20463;-68
2022/06/29 13:30:16;;;;;;;2.70;2.50;;;27.50;99.90;;;;;;5011424;28;20571;-68
2022/06/29 13:33:05;;;;;;;2.37;2.17;;;27.60;99.90;;;;;;5014852;28;20480;-69
2022/06/29 13:35:53;;;;;;;2.90;2.40;;;27.80;99.90;;;;;;5013602;28;20475;-68
2022/06/29 13:38:43;;;;;;;2.67;2.47;;;28.00;99.90;;;;;;5013028;28;20520;-68
2022/06/29 13:41:31;;;;;;;2.80;2.60;;;28.20;99.90;;;;;;5017290;28;20589;-68
2022/06/29 13:44:21;;;;;;;2.80;2.70;;;28.30;99.90;;;;;;5016025;28;20665;-68
2022/06/29 13:47:11;;;;;;;2.50;2.37;;;28.40;99.90;;;;;;5018089;28;20504;-68
2022/06/29 13:49:59;;;;;;;2.90;2.40;;;28.50;99.90;;;;;;5015316;28;20849;-68
2022/06/29 13:52:54;;;;;;;3.30;2.73;;;28.70;99.90;;;;;;5016383;28;20452;-68
2022/06/29 13:55:43;;;;;;;2.23;2.13;;;28.90;99.90;;;;;;5014510;28;20483;-68
2022/06/29 13:58:38;;;;;;;3.20;2.70;;;29.00;99.90;;;;;;5010603;28;20472;-68
2022/06/29 14:01:29;;;;;;;2.57;2.37;;;29.10;99.90;;;;;;5015022;28;20848;-68
2022/06/29 14:04:24;;;;;;;2.20;2.00;;;29.20;99.90;;;;;;5014733;28;20468;-68
2022/06/29 14:07:18;;;;;;;4.07;2.00;;;29.20;99.90;;;;;;5011393;28;20501;-68
2022/06/29 14:10:26;;;;;;;2.50;2.13;;;29.10;99.90;;;;;;5014317;28;20488;-69
2022/06/29 14:13:15;;;;;;;2.00;1.90;;;29.00;99.90;;;;;;5009864;28;20640;-68
2022/06/29 14:16:03;;;;;;;2.57;2.27;;;29.00;99.90;;;;;;5008448;28;20558;-68
2022/06/29 14:18:56;;;;;;;2.10;2.00;;;28.90;99.90;;;;;;5010601;28;20528;-68
2022/06/29 14:21:44;;;;;;;2.17;2.07;;;28.80;99.90;;;;;;5017400;28;20966;-68
2022/06/29 14:24:32;;;;;;;2.73;2.63;;;28.70;99.90;;;;;;5007102;28;20475;-68
2022/06/29 14:27:20;;;;;;;2.70;2.50;;;28.80;99.90;;;;;;5016570;28;20950;-68
2022/06/29 14:30:10;;;;;;;3.50;3.20;;;28.80;99.90;;;;;;5013307;28;20535;-68
2022/06/29 14:32:59;;;;;;;2.70;2.60;;;28.90;99.90;;;;;;5011686;28;20452;-69
2022/06/29 14:35:50;;;;;;;2.63;2.43;;;28.90;99.90;;;;;;5012702;28;20629;-68
2022/06/29 14:38:39;;;;;;;3.07;2.30;;;28.80;99.90;;;;;;5014776;28;20554;-67
2022/06/29 14:41:30;;;;;;;2.17;2.07;;;28.70;99.90;;;;;;5018653;28;21531;-68
2022/06/29 14:44:21;;;;;;;6.23;5.83;;;28.60;99.90;;;;;;5009259;28;20594;-68
2022/06/29 14:47:10;;;;;;;5.97;5.43;;;28.60;99.90;;;;;;5017935;28;20947;-68
2022/06/29 14:49:58;;;;;;;3.10;2.90;;;28.60;99.90;;;;;;5015997;28;20486;-68
2022/06/29 14:52:50;;;;;;;2.20;2.00;;;28.70;99.90;;;;;;5015360;28;20932;-68
2022/06/29 14:55:38;;;;;;;2.10;2.00;;;28.90;99.90;;;;;;5014076;28;21010;-67
2022/06/29 14:58:26;;;;;;;2.00;1.90;;;28.90;99.90;;;;;;5016245;28;20536;-68
2022/06/29 15:01:20;;;;;;;2.10;2.00;;;29.00;99.90;;;;;;5016572;28;20488;-68
2022/06/29 15:04:08;;;;;;;2.57;1.90;;;29.10;99.90;;;;;;5017618;28;20475;-68
2022/06/29 15:07:00;;;;;;;2.50;2.40;;;29.10;99.90;;;;;;5016498;28;20460;-68
2022/06/29 15:09:50;;;;;;;2.40;2.20;;;29.10;99.90;;;;;;5016019;28;20472;-68
2022/06/29 15:12:38;;;;;;;3.43;2.10;;;29.10;99.90;;;;;;5015698;28;20622;-68
2022/06/29 15:15:31;;;;;;;2.80;2.00;;;28.90;99.90;;;;;;5016074;28;20538;-68
2022/06/29 15:18:22;;;;;;;2.30;2.10;;;28.80;99.90;;;;;;5018434;28;20593;-68
2022/06/29 15:21:12;;;;;;;2.50;2.40;;;28.60;99.90;;;;;;5012720;28;20489;-68
2022/06/29 15:24:09;;;;;;;2.10;2.00;;;28.60;99.90;;;;;;5016739;28;20563;-68
2022/06/29 15:27:01;;;;;;;2.70;2.50;;;28.50;99.90;;;;;;5017672;28;20586;-68
2022/06/29 15:29:49;;;;;;;2.00;1.90;;;28.40;99.90;;;;;;5014164;28;20835;-68
2022/06/29 15:32:43;;;;;;;2.10;2.00;;;28.50;99.90;;;;;;5017834;28;20513;-68
2022/06/29 15:38:50;;;;;;;2.10;1.90;;;28.70;99.90;;;;;;5017201;28;20581;-68
2022/06/29 15:41:38;;;;;;;2.57;2.37;;;28.90;99.90;;;;;;5013473;28;20470;-68
2022/06/29 15:44:28;;;;;;;2.20;1.87;;;29.00;99.90;;;;;;5016693;28;20809;-68
2022/06/29 15:47:17;;;;;;;2.03;1.93;;;29.10;99.90;;;;;;5019142;28;20472;-68
2022/06/29 15:50:09;;;;;;;2.37;2.27;;;29.20;99.90;;;;;;5009521;28;20479;-68
2022/06/29 15:56:03;;;;;;;2.40;2.20;;;29.50;99.90;;;;;;5016690;28;20909;-68